Terminal Aerodrome Forecast
Issued by NWS Quad Cities IA IL

Home | Current Version | Previous Version | Graphics & Text | Print | Product List | Glossary On
Versions: 1 2 3 4 5 6 7 8 9 10 11 12 13 14 15 16 17 18 19 20
000
FTUS43 KDVN 221554 AAA
TAFDBQ
TAF AMD
KDBQ 221554Z 2216/2312 06011KT P6SM OVC080
     FM222000 07010KT P6SM OVC030
     FM230300 09010KT 2SM -FZRA OVC006=

USA.gov is the U.S. government's official web portal to all federal, state and local government web resources and services.